This demonstration page uses our WeatherBlox Daily Observations layout. Learn more.

Hourly Observations for December 2, 2017

Temp ( °F °C ) Dew Point ( °F °C ) Humidity (%) Winds ( mph kmh ) Pressure ( in mb ) Visibility ( mi km ) Precip ( " mm )
12:54 am 00:54 Clear 33 0.6 26 -3.3 75 75 Calm 30.1 1019 10 16.0934 0 0
1:54 am 01:54 Clear 32 0 26 -3.3 79 79 Calm 30.11 1020 10 16.0934 0 0
2:54 am 02:54 Clear 27 -2.8 22 -5.6 81 81 NNW 5 7 30.11 1020 9 14.48406 0 0
3:54 am 03:54 Clear 28 -2.2 24 -4.4 85 85 Calm 30.11 1020 10 16.0934 0 0
4:54 am 04:54 Clear 26 -3.3 23 -5 88 88 Calm 30.12 1020 10 16.0934 0 0
5:54 am 05:54 Clear 27 -2.8 22 -5.6 81 81 Calm 30.13 1020 10 16.0934 0 0
6:54 am 06:54 Clear 24 -4.4 20 -6.7 84 84 Calm 30.16 1022 10 16.0934 0 0
7:54 am 07:54 Sunny 25 -3.9 20 -6.7 81 81 Calm 30.2 1023 10 16.0934 0 0
8:54 am 08:54 Sunny 30 -1.1 24 -4.4 79 79 NNW 3 6 30.2 1023 10 16.0934 0 0
9:54 am 09:54 Sunny 37 2.8 27 -2.8 67 67 Calm 30.2 1023 10 16.0934 0 0
10:54 am 10:54 Sunny 47 8.3 26 -3.3 44 44 Calm 30.2 1023 10 16.0934 0 0
11:54 am 11:54 Sunny 51 10.6 24 -4.4 35 35 Calm 30.17 1022 10 16.0934 0 0
12:54 pm 12:54 Sunny 55 12.8 19 -7.2 24 24 Calm 30.14 1021 10 16.0934 0 0
1:54 pm 13:54 Sunny 56 13.3 21 -6.1 26 26 Calm 30.14 1021 10 16.0934 0 0
2:54 pm 14:54 Sunny 57 13.9 19 -7.2 23 23 Calm 30.12 1020 10 16.0934 0 0
3:54 pm 15:54 Sunny 56 13.3 19 -7.2 24 24 ESE 3 6 30.12 1020 10 16.0934 0 0
4:54 pm 16:54 Sunny 50 10 20 -6.7 30 30 ENE 5 7 30.12 1020 10 16.0934 0 0
5:54 pm 17:54 Clear 45 7.2 20 -6.7 37 37 Calm 30.14 1021 10 16.0934 0 0
6:54 pm 18:54 Clear 39 3.9 22 -5.6 50 50 Calm 30.16 1021 9 14.48406 0 0
7:54 pm 19:54 Clear 34 1.1 20 -6.7 56 56 Calm 30.16 1021 10 16.0934 0 0
8:54 pm 20:54 Clear 29 -1.7 20 -6.7 69 69 NNE 3 6 30.16 1021 8 12.87472 0 0
9:54 pm 21:54 Clear 29 -1.7 19 -7.2 66 66 Calm 30.15 1021 8 12.87472 0 0
10:54 pm 22:54 Clear 26 -3.3 19 -7.2 75 75 Calm 30.15 1021 8 12.87472 0 0
11:54 pm 23:54 Clear 29 -1.7 21 -6.1 72 72 Calm 30.13 1020 9 14.48406 0 0

Powered by AerisWeather